sensor_id;sensor_type;location;lat;lon;timestamp;pressure;altitude;pressure_sealevel;temperature;humidity
6349;BME280;3207;42.648;23.406;2022-08-03T00:02:02;100135.50;;;24.92;76.66
6349;BME280;3207;42.648;23.406;2022-08-03T00:04:29;100132.22;;;24.90;76.15
6349;BME280;3207;42.648;23.406;2022-08-03T00:06:55;100133.19;;;24.82;77.11
6349;BME280;3207;42.648;23.406;2022-08-03T00:09:22;100133.41;;;24.80;76.99
6349;BME280;3207;42.648;23.406;2022-08-03T00:11:48;100124.97;;;24.77;77.35
6349;BME280;3207;42.648;23.406;2022-08-03T00:14:15;100125.16;;;24.75;77.02
6349;BME280;3207;42.648;23.406;2022-08-03T00:16:41;100123.84;;;24.58;76.28
6349;BME280;3207;42.648;23.406;2022-08-03T00:19:09;100124.28;;;24.55;76.80
6349;BME280;3207;42.648;23.406;2022-08-03T00:21:36;100126.75;;;24.57;76.45
6349;BME280;3207;42.648;23.406;2022-08-03T00:24:03;100130.00;;;24.52;76.34
6349;BME280;3207;42.648;23.406;2022-08-03T00:26:30;100130.13;;;24.37;74.31
6349;BME280;3207;42.648;23.406;2022-08-03T00:28:56;100125.78;;;24.30;74.53
6349;BME280;3207;42.648;23.406;2022-08-03T00:31:23;100132.16;;;24.29;74.16
6349;BME280;3207;42.648;23.406;2022-08-03T00:33:49;100127.94;;;24.20;73.60
6349;BME280;3207;42.648;23.406;2022-08-03T00:36:17;100132.25;;;24.14;73.26
6349;BME280;3207;42.648;23.406;2022-08-03T00:38:44;100128.78;;;24.20;73.50
6349;BME280;3207;42.648;23.406;2022-08-03T00:41:13;100125.56;;;24.25;74.16
6349;BME280;3207;42.648;23.406;2022-08-03T00:43:40;100128.84;;;24.27;73.80
6349;BME280;3207;42.648;23.406;2022-08-03T00:46:06;100128.06;;;24.33;73.47
6349;BME280;3207;42.648;23.406;2022-08-03T00:48:33;100127.69;;;24.36;73.72
6349;BME280;3207;42.648;23.406;2022-08-03T00:51:03;100130.13;;;24.37;72.98
6349;BME280;3207;42.648;23.406;2022-08-03T00:53:33;100119.84;;;24.34;73.57
6349;BME280;3207;42.648;23.406;2022-08-03T00:56:00;100123.56;;;24.40;73.10
6349;BME280;3207;42.648;23.406;2022-08-03T00:58:27;100126.69;;;24.43;73.04
6349;BME280;3207;42.648;23.406;2022-08-03T01:00:53;100126.50;;;24.45;72.71
6349;BME280;3207;42.648;23.406;2022-08-03T01:03:20;100129.78;;;24.47;72.66
6349;BME280;3207;42.648;23.406;2022-08-03T01:05:51;100126.91;;;24.49;71.86
6349;BME280;3207;42.648;23.406;2022-08-03T01:08:24;100139.25;;;24.50;72.20
6349;BME280;3207;42.648;23.406;2022-08-03T01:11:00;100127.72;;;24.49;71.63
6349;BME280;3207;42.648;23.406;2022-08-03T01:13:38;100135.75;;;24.49;71.18
6349;BME280;3207;42.648;23.406;2022-08-03T01:16:16;100126.50;;;24.45;71.09
6349;BME280;3207;42.648;23.406;2022-08-03T01:18:48;100132.47;;;24.47;71.26
6349;BME280;3207;42.648;23.406;2022-08-03T01:21:20;100128.34;;;24.44;72.34
6349;BME280;3207;42.648;23.406;2022-08-03T01:23:58;100130.81;;;24.46;70.71
6349;BME280;3207;42.648;23.406;2022-08-03T01:26:55;100126.88;;;24.42;71.25
6349;BME280;3207;42.648;23.406;2022-08-03T01:29:49;100129.53;;;24.42;71.78
6349;BME280;3207;42.648;23.406;2022-08-03T01:32:20;100127.69;;;24.42;71.78
6349;BME280;3207;42.648;23.406;2022-08-03T01:34:51;100118.66;;;24.43;72.09
6349;BME280;3207;42.648;23.406;2022-08-03T01:37:31;100119.25;;;24.39;72.08
6349;BME280;3207;42.648;23.406;2022-08-03T01:40:02;100117.81;;;24.36;73.07
6349;BME280;3207;42.648;23.406;2022-08-03T01:42:32;100113.25;;;24.30;72.46
6349;BME280;3207;42.648;23.406;2022-08-03T01:45:11;100117.13;;;24.28;73.10
6349;BME280;3207;42.648;23.406;2022-08-03T01:47:40;100117.53;;;24.25;73.67
6349;BME280;3207;42.648;23.406;2022-08-03T01:50:10;100115.06;;;24.23;73.76
6349;BME280;3207;42.648;23.406;2022-08-03T01:52:39;100113.56;;;24.21;74.13
6349;BME280;3207;42.648;23.406;2022-08-03T01:55:09;100106.22;;;24.23;74.68
6349;BME280;3207;42.648;23.406;2022-08-03T01:57:42;100113.56;;;24.21;73.98
6349;BME280;3207;42.648;23.406;2022-08-03T02:00:13;100108.22;;;24.14;74.22
6349;BME280;3207;42.648;23.406;2022-08-03T02:02:42;100119.94;;;24.20;74.38
6349;BME280;3207;42.648;23.406;2022-08-03T02:05:14;100112.94;;;24.19;74.83
6349;BME280;3207;42.648;23.406;2022-08-03T02:07:44;100108.41;;;24.19;75.50
6349;BME280;3207;42.648;23.406;2022-08-03T02:10:15;100106.56;;;24.20;74.93
6349;BME280;3207;42.648;23.406;2022-08-03T02:12:45;100109.06;;;24.21;75.88
6349;BME280;3207;42.648;23.406;2022-08-03T02:15:17;100106.22;;;24.23;75.79
6349;BME280;3207;42.648;23.406;2022-08-03T02:17:46;100108.81;;;24.16;76.11
6349;BME280;3207;42.648;23.406;2022-08-03T02:20:15;100108.41;;;24.19;76.29
6349;BME280;3207;42.648;23.406;2022-08-03T02:22:45;100109.06;;;24.21;75.84
6349;BME280;3207;42.648;23.406;2022-08-03T02:25:14;100106.56;;;24.13;76.15
6349;BME280;3207;42.648;23.406;2022-08-03T02:27:54;100098.94;;;24.10;76.06
6349;BME280;3207;42.648;23.406;2022-08-03T02:30:28;100095.03;;;24.13;76.28
6349;BME280;3207;42.648;23.406;2022-08-03T02:32:58;100099.16;;;24.15;75.89
6349;BME280;3207;42.648;23.406;2022-08-03T02:35:28;100101.03;;;24.15;75.31
6349;BME280;3207;42.648;23.406;2022-08-03T02:38:00;100104.50;;;24.15;75.48
6349;BME280;3207;42.648;23.406;2022-08-03T02:40:30;100110.00;;;24.07;75.37
6349;BME280;3207;42.648;23.406;2022-08-03T02:43:01;100112.59;;;23.94;75.57
6349;BME280;3207;42.648;23.406;2022-08-03T02:45:32;100099.78;;;23.83;76.19
6349;BME280;3207;42.648;23.406;2022-08-03T02:48:03;100102.53;;;23.68;76.37
6349;BME280;3207;42.648;23.406;2022-08-03T02:50:33;100101.41;;;23.56;76.75
6349;BME280;3207;42.648;23.406;2022-08-03T02:53:02;100103.44;;;23.54;77.36
6349;BME280;3207;42.648;23.406;2022-08-03T02:55:33;100102.44;;;23.55;77.22
6349;BME280;3207;42.648;23.406;2022-08-03T02:58:02;100110.06;;;23.58;77.42
6349;BME280;3207;42.648;23.406;2022-08-03T03:00:33;100110.44;;;23.55;77.54
6349;BME280;3207;42.648;23.406;2022-08-03T03:03:03;100105.38;;;23.60;77.75
6349;BME280;3207;42.648;23.406;2022-08-03T03:05:33;100102.28;;;23.63;77.66
6349;BME280;3207;42.648;23.406;2022-08-03T03:08:02;100105.75;;;23.57;77.54
6349;BME280;3207;42.648;23.406;2022-08-03T03:10:30;100113.31;;;23.53;76.99
6349;BME280;3207;42.648;23.406;2022-08-03T03:12:57;100118.75;;;23.45;77.02
6349;BME280;3207;42.648;23.406;2022-08-03T03:15:25;100112.03;;;23.28;77.03
6349;BME280;3207;42.648;23.406;2022-08-03T03:17:54;100115.84;;;23.40;77.78
6349;BME280;3207;42.648;23.406;2022-08-03T03:20:22;100119.94;;;23.43;78.11
6349;BME280;3207;42.648;23.406;2022-08-03T03:22:51;100114.63;;;23.43;76.92
6349;BME280;3207;42.648;23.406;2022-08-03T03:25:18;100121.88;;;23.49;76.80
6349;BME280;3207;42.648;23.406;2022-08-03T03:27:46;100120.28;;;23.33;75.34
6349;BME280;3207;42.648;23.406;2022-08-03T03:30:16;100125.69;;;23.40;76.03
6349;BME280;3207;42.648;23.406;2022-08-03T03:32:43;100128.22;;;23.48;75.58
6349;BME280;3207;42.648;23.406;2022-08-03T03:35:12;100121.09;;;23.33;75.23
6349;BME280;3207;42.648;23.406;2022-08-03T03:37:39;100130.13;;;23.32;75.08
6349;BME280;3207;42.648;23.406;2022-08-03T03:40:06;100137.63;;;23.44;75.48
6349;BME280;3207;42.648;23.406;2022-08-03T03:42:33;100137.88;;;23.49;74.82
6349;BME280;3207;42.648;23.406;2022-08-03T03:45:02;100133.25;;;23.36;74.04
6349;BME280;3207;42.648;23.406;2022-08-03T03:47:29;100137.56;;;23.37;75.00
6349;BME280;3207;42.648;23.406;2022-08-03T03:49:56;100135.97;;;23.43;74.76
6349;BME280;3207;42.648;23.406;2022-08-03T03:52:27;100138.84;;;23.41;74.60
6349;BME280;3207;42.648;23.406;2022-08-03T03:54:53;100125.63;;;23.33;74.76
6349;BME280;3207;42.648;23.406;2022-08-03T03:57:20;100146.22;;;23.39;74.81
6349;BME280;3207;42.648;23.406;2022-08-03T03:59:47;100148.28;;;23.44;74.71
6349;BME280;3207;42.648;23.406;2022-08-03T04:02:13;100132.69;;;23.41;74.41
6349;BME280;3207;42.648;23.406;2022-08-03T04:04:40;100140.88;;;23.39;74.54
6349;BME280;3207;42.648;23.406;2022-08-03T04:07:26;100147.56;;;23.50;75.03
6349;BME280;3207;42.648;23.406;2022-08-03T04:10:20;100145.59;;;23.58;74.74
6349;BME280;3207;42.648;23.406;2022-08-03T04:13:07;100147.47;;;23.64;74.63
6349;BME280;3207;42.648;23.406;2022-08-03T04:15:37;100148.56;;;23.70;74.64
6349;BME280;3207;42.648;23.406;2022-08-03T04:18:05;100143.97;;;23.64;74.12
6349;BME280;3207;42.648;23.406;2022-08-03T04:20:34;100150.72;;;23.81;73.70
6349;BME280;3207;42.648;23.406;2022-08-03T04:23:07;100154.88;;;23.90;73.35
6349;BME280;3207;42.648;23.406;2022-08-03T04:25:37;100154.09;;;23.96;72.43
6349;BME280;3207;42.648;23.406;2022-08-03T04:28:06;100161.53;;;24.01;71.82
6349;BME280;3207;42.648;23.406;2022-08-03T04:30:35;100163.00;;;24.03;71.71
6349;BME280;3207;42.648;23.406;2022-08-03T04:33:03;100165.91;;;24.08;72.17
6349;BME280;3207;42.648;23.406;2022-08-03T04:35:33;100165.31;;;24.13;71.15
6349;BME280;3207;42.648;23.406;2022-08-03T04:38:06;100163.72;;;24.19;71.33
6349;BME280;3207;42.648;23.406;2022-08-03T04:40:36;100168.31;;;24.25;70.85
6349;BME280;3207;42.648;23.406;2022-08-03T04:43:04;100175.72;;;24.29;71.01
6349;BME280;3207;42.648;23.406;2022-08-03T04:45:32;100169.16;;;24.32;70.76
6349;BME280;3207;42.648;23.406;2022-08-03T04:47:59;100171.66;;;24.33;70.90
6349;BME280;3207;42.648;23.406;2022-08-03T04:50:26;100174.34;;;24.40;70.68
6349;BME280;3207;42.648;23.406;2022-08-03T04:52:53;100171.72;;;24.47;71.17
6349;BME280;3207;42.648;23.406;2022-08-03T04:55:28;100180.78;;;24.52;70.52
6349;BME280;3207;42.648;23.406;2022-08-03T04:57:55;100184.09;;;24.54;69.76
6349;BME280;3207;42.648;23.406;2022-08-03T05:00:22;100180.81;;;24.59;70.22
6349;BME280;3207;42.648;23.406;2022-08-03T05:02:49;100180.03;;;24.65;70.09
6349;BME280;3207;42.648;23.406;2022-08-03T05:05:16;100104.38;;;24.23;70.61
6349;BME280;3207;42.648;23.406;2022-08-03T05:07:43;100178.41;;;24.70;70.43
6349;BME280;3207;42.648;23.406;2022-08-03T05:10:11;100177.38;;;24.71;70.70
6349;BME280;3207;42.648;23.406;2022-08-03T05:12:39;100186.63;;;24.69;71.47
6349;BME280;3207;42.648;23.406;2022-08-03T05:15:06;100180.47;;;24.68;70.89
6349;BME280;3207;42.648;23.406;2022-08-03T05:17:33;100179.47;;;24.76;71.39
6349;BME280;3207;42.648;23.406;2022-08-03T05:20:01;100186.88;;;24.80;70.91
6349;BME280;3207;42.648;23.406;2022-08-03T05:22:28;100190.44;;;24.88;71.10
6349;BME280;3207;42.648;23.406;2022-08-03T05:24:55;100198.31;;;24.96;70.54
6349;BME280;3207;42.648;23.406;2022-08-03T05:27:21;100203.63;;;24.89;70.27
6349;BME280;3207;42.648;23.406;2022-08-03T05:29:49;100201.19;;;25.01;70.15
6349;BME280;3207;42.648;23.406;2022-08-03T05:32:16;100197.94;;;25.12;70.01
6349;BME280;3207;42.648;23.406;2022-08-03T05:34:43;100205.81;;;25.20;69.76
6349;BME280;3207;42.648;23.406;2022-08-03T05:37:13;100201.69;;;25.24;70.08
6349;BME280;3207;42.648;23.406;2022-08-03T05:39:39;100204.59;;;25.36;69.82
6349;BME280;3207;42.648;23.406;2022-08-03T05:42:06;100194.72;;;25.43;69.44
6349;BME280;3207;42.648;23.406;2022-08-03T05:44:33;100208.75;;;25.51;68.47
6349;BME280;3207;42.648;23.406;2022-08-03T05:47:04;100209.78;;;25.57;68.75
6349;BME280;3207;42.648;23.406;2022-08-03T05:49:30;100200.94;;;25.57;68.36
6349;BME280;3207;42.648;23.406;2022-08-03T05:51:57;100213.97;;;25.73;68.39
6349;BME280;3207;42.648;23.406;2022-08-03T05:54:23;100204.47;;;25.77;68.51
6349;BME280;3207;42.648;23.406;2022-08-03T05:56:50;100215.81;;;25.92;68.86
6349;BME280;3207;42.648;23.406;2022-08-03T05:59:17;100205.75;;;25.94;69.92
6349;BME280;3207;42.648;23.406;2022-08-03T06:01:43;100216.66;;;25.99;70.04
6349;BME280;3207;42.648;23.406;2022-08-03T06:04:12;100220.16;;;25.93;70.34
6349;BME280;3207;42.648;23.406;2022-08-03T06:06:39;100214.38;;;25.89;70.37
6349;BME280;3207;42.648;23.406;2022-08-03T06:09:06;100210.03;;;26.08;69.91
6349;BME280;3207;42.648;23.406;2022-08-03T06:11:32;100205.91;;;26.25;69.46
6349;BME280;3207;42.648;23.406;2022-08-03T06:13:59;100221.19;;;26.32;69.00
6349;BME280;3207;42.648;23.406;2022-08-03T06:16:26;100219.13;;;26.34;69.26
6349;BME280;3207;42.648;23.406;2022-08-03T06:18:52;100219.09;;;26.47;68.73
6349;BME280;3207;42.648;23.406;2022-08-03T06:21:20;100217.44;;;26.59;69.10
6349;BME280;3207;42.648;23.406;2022-08-03T06:23:47;100224.00;;;26.63;69.05
6349;BME280;3207;42.648;23.406;2022-08-03T06:26:13;100215.34;;;26.68;68.46
6349;BME280;3207;42.648;23.406;2022-08-03T06:28:40;100217.16;;;26.74;68.68
6349;BME280;3207;42.648;23.406;2022-08-03T06:31:06;100227.03;;;26.86;68.50
6349;BME280;3207;42.648;23.406;2022-08-03T06:33:33;100222.69;;;26.99;68.04
6349;BME280;3207;42.648;23.406;2022-08-03T06:36:00;100230.06;;;27.10;66.86
6349;BME280;3207;42.648;23.406;2022-08-03T06:38:27;100231.47;;;27.19;65.45
6349;BME280;3207;42.648;23.406;2022-08-03T06:40:54;100222.53;;;27.31;64.15
6349;BME280;3207;42.648;23.406;2022-08-03T06:43:21;100224.13;;;27.39;63.95
6349;BME280;3207;42.648;23.406;2022-08-03T06:45:47;100227.34;;;27.54;63.75
6349;BME280;3207;42.648;23.406;2022-08-03T06:48:14;100231.00;;;27.66;63.54
6349;BME280;3207;42.648;23.406;2022-08-03T06:50:40;100226.56;;;27.79;62.67
6349;BME280;3207;42.648;23.406;2022-08-03T06:53:09;100227.19;;;27.81;62.55
6349;BME280;3207;42.648;23.406;2022-08-03T06:55:37;100227.31;;;27.92;62.35
6349;BME280;3207;42.648;23.406;2022-08-03T06:58:03;100229.88;;;28.05;62.12
6349;BME280;3207;42.648;23.406;2022-08-03T07:00:30;100232.25;;;28.20;61.03
6349;BME280;3207;42.648;23.406;2022-08-03T07:02:56;100231.53;;;28.31;59.84
6349;BME280;3207;42.648;23.406;2022-08-03T07:05:23;100236.69;;;28.33;58.83
6349;BME280;3207;42.648;23.406;2022-08-03T07:07:49;100245.75;;;28.38;59.34
6349;BME280;3207;42.648;23.406;2022-08-03T07:10:16;100236.94;;;28.50;58.63
6349;BME280;3207;42.648;23.406;2022-08-03T07:12:44;100237.53;;;28.52;58.84
6349;BME280;3207;42.648;23.406;2022-08-03T07:15:11;100236.34;;;28.66;57.97
6349;BME280;3207;42.648;23.406;2022-08-03T07:17:38;100236.38;;;28.84;57.44
6349;BME280;3207;42.648;23.406;2022-08-03T07:20:06;100231.88;;;28.96;56.85
6349;BME280;3207;42.648;23.406;2022-08-03T07:22:33;100246.19;;;29.27;55.90
6349;BME280;3207;42.648;23.406;2022-08-03T07:25:00;100247.31;;;29.37;55.66
6349;BME280;3207;42.648;23.406;2022-08-03T07:27:27;100245.28;;;29.51;55.49
6349;BME280;3207;42.648;23.406;2022-08-03T07:29:56;100250.59;;;29.69;55.16
6349;BME280;3207;42.648;23.406;2022-08-03T07:32:23;100246.88;;;29.82;53.71
6349;BME280;3207;42.648;23.406;2022-08-03T07:34:50;100246.75;;;29.89;51.88
6349;BME280;3207;42.648;23.406;2022-08-03T07:37:17;100246.81;;;30.00;51.51
6349;BME280;3207;42.648;23.406;2022-08-03T07:39:44;100248.00;;;30.04;50.02
6349;BME280;3207;42.648;23.406;2022-08-03T07:42:11;100248.34;;;30.19;49.69
6349;BME280;3207;42.648;23.406;2022-08-03T07:44:37;100244.28;;;30.40;49.65
6349;BME280;3207;42.648;23.406;2022-08-03T07:47:06;100243.41;;;30.51;48.25
6349;BME280;3207;42.648;23.406;2022-08-03T07:49:32;100238.84;;;30.75;47.78
6349;BME280;3207;42.648;23.406;2022-08-03T07:51:59;100245.72;;;30.94;47.38
6349;BME280;3207;42.648;23.406;2022-08-03T07:54:39;100242.53;;;31.09;45.88
6349;BME280;3207;42.648;23.406;2022-08-03T07:57:06;100247.72;;;30.99;43.88
6349;BME280;3207;42.648;23.406;2022-08-03T07:59:32;100239.91;;;30.74;44.34
6349;BME280;3207;42.648;23.406;2022-08-03T08:02:02;100237.09;;;30.69;44.83
6349;BME280;3207;42.648;23.406;2022-08-03T08:04:30;100246.22;;;30.91;45.05
6349;BME280;3207;42.648;23.406;2022-08-03T08:06:57;100221.59;;;30.76;44.63
6349;BME280;3207;42.648;23.406;2022-08-03T08:09:23;100244.53;;;31.14;43.52
6349;BME280;3207;42.648;23.406;2022-08-03T08:11:50;100246.56;;;31.35;43.66
6349;BME280;3207;42.648;23.406;2022-08-03T08:14:17;100255.38;;;31.59;43.56
6349;BME280;3207;42.648;23.406;2022-08-03T08:16:44;100250.09;;;31.64;39.32
6349;BME280;3207;42.648;23.406;2022-08-03T08:19:12;100244.78;;;31.57;39.79
6349;BME280;3207;42.648;23.406;2022-08-03T08:21:40;100236.84;;;31.51;38.81
6349;BME280;3207;42.648;23.406;2022-08-03T08:24:07;100245.28;;;31.26;39.32
6349;BME280;3207;42.648;23.406;2022-08-03T08:26:34;100238.63;;;31.05;39.87
6349;BME280;3207;42.648;23.406;2022-08-03T08:29:00;100253.16;;;31.27;38.43
6349;BME280;3207;42.648;23.406;2022-08-03T08:31:27;100244.75;;;31.41;38.54
6349;BME280;3207;42.648;23.406;2022-08-03T08:33:54;100249.72;;;31.60;35.27
6349;BME280;3207;42.648;23.406;2022-08-03T08:36:20;100251.72;;;31.37;34.91
6349;BME280;3207;42.648;23.406;2022-08-03T08:38:49;100243.22;;;31.45;34.68
6349;BME280;3207;42.648;23.406;2022-08-03T08:41:16;100245.13;;;31.61;32.96
6349;BME280;3207;42.648;23.406;2022-08-03T08:43:42;100248.91;;;31.60;33.63
6349;BME280;3207;42.648;23.406;2022-08-03T08:46:11;100248.78;;;31.83;32.81
6349;BME280;3207;42.648;23.406;2022-08-03T08:48:47;100244.63;;;31.92;33.71
6349;BME280;3207;42.648;23.406;2022-08-03T08:51:15;100242.81;;;31.81;33.87
6349;BME280;3207;42.648;23.406;2022-08-03T08:53:47;100228.63;;;32.08;33.60
6349;BME280;3207;42.648;23.406;2022-08-03T08:56:16;100249.81;;;32.27;33.31
6349;BME280;3207;42.648;23.406;2022-08-03T08:58:47;100243.47;;;32.22;33.31
6349;BME280;3207;42.648;23.406;2022-08-03T09:01:16;100237.81;;;32.23;33.87
6349;BME280;3207;42.648;23.406;2022-08-03T09:03:43;100190.91;;;32.01;33.57
6349;BME280;3207;42.648;23.406;2022-08-03T09:06:10;100242.75;;;32.10;34.44
6349;BME280;3207;42.648;23.406;2022-08-03T09:08:36;100208.81;;;32.19;33.35
6349;BME280;3207;42.648;23.406;2022-08-03T09:11:03;100237.81;;;32.40;33.13
6349;BME280;3207;42.648;23.406;2022-08-03T09:13:33;100245.84;;;32.35;33.26
6349;BME280;3207;42.648;23.406;2022-08-03T09:16:11;100237.28;;;32.60;33.40
6349;BME280;3207;42.648;23.406;2022-08-03T09:18:39;100241.03;;;32.59;33.35
6349;BME280;3207;42.648;23.406;2022-08-03T09:21:14;100231.63;;;32.45;33.36
6349;BME280;3207;42.648;23.406;2022-08-03T09:23:44;100235.66;;;32.42;33.68
6349;BME280;3207;42.648;23.406;2022-08-03T09:26:14;100244.22;;;32.34;32.64
6349;BME280;3207;42.648;23.406;2022-08-03T09:28:53;100236.81;;;32.46;31.20
6349;BME280;3207;42.648;23.406;2022-08-03T09:31:28;100238.31;;;32.37;31.05
6349;BME280;3207;42.648;23.406;2022-08-03T09:33:55;100241.25;;;32.52;30.55
6349;BME280;3207;42.648;23.406;2022-08-03T09:36:39;100226.25;;;32.66;30.79
6349;BME280;3207;42.648;23.406;2022-08-03T09:39:08;100233.91;;;32.53;31.22
6349;BME280;3207;42.648;23.406;2022-08-03T09:41:37;100240.22;;;32.58;30.41
6349;BME280;3207;42.648;23.406;2022-08-03T09:44:05;100243.66;;;32.54;30.57
6349;BME280;3207;42.648;23.406;2022-08-03T09:46:46;100236.66;;;32.75;30.80
6349;BME280;3207;42.648;23.406;2022-08-03T09:49:13;100210.69;;;32.57;31.51
6349;BME280;3207;42.648;23.406;2022-08-03T09:51:40;100236.50;;;32.64;31.47
6349;BME280;3207;42.648;23.406;2022-08-03T09:54:07;100219.66;;;32.79;31.77
6349;BME280;3207;42.648;23.406;2022-08-03T09:56:38;100220.41;;;32.96;31.88
6349;BME280;3207;42.648;23.406;2022-08-03T09:59:07;100226.50;;;33.30;31.01
6349;BME280;3207;42.648;23.406;2022-08-03T10:01:34;100213.84;;;33.14;30.97
6349;BME280;3207;42.648;23.406;2022-08-03T10:04:02;100229.53;;;33.34;30.56
6349;BME280;3207;42.648;23.406;2022-08-03T10:06:28;100205.13;;;33.34;30.74
6349;BME280;3207;42.648;23.406;2022-08-03T10:09:05;100218.94;;;33.32;30.36
6349;BME280;3207;42.648;23.406;2022-08-03T10:11:32;100215.31;;;33.00;29.79
6349;BME280;3207;42.648;23.406;2022-08-03T10:14:01;100221.81;;;32.99;29.92
6349;BME280;3207;42.648;23.406;2022-08-03T10:16:33;100213.88;;;33.19;29.70
6349;BME280;3207;42.648;23.406;2022-08-03T10:19:00;100219.41;;;33.51;29.85
6349;BME280;3207;42.648;23.406;2022-08-03T10:21:29;100216.56;;;33.68;29.62
6349;BME280;3207;42.648;23.406;2022-08-03T10:23:58;100202.34;;;33.83;29.74
6349;BME280;3207;42.648;23.406;2022-08-03T10:26:26;100208.78;;;34.08;29.97
6349;BME280;3207;42.648;23.406;2022-08-03T10:28:59;100208.56;;;34.62;29.11
6349;BME280;3207;42.648;23.406;2022-08-03T10:31:34;100201.19;;;34.58;28.67
6349;BME280;3207;42.648;23.406;2022-08-03T10:34:04;100191.19;;;34.68;28.78
6349;BME280;3207;42.648;23.406;2022-08-03T10:36:32;100191.28;;;34.83;28.38
6349;BME280;3207;42.648;23.406;2022-08-03T10:39:01;100190.47;;;34.83;28.12
6349;BME280;3207;42.648;23.406;2022-08-03T10:41:31;100183.00;;;34.58;28.98
6349;BME280;3207;42.648;23.406;2022-08-03T10:44:02;100187.16;;;34.76;28.44
6349;BME280;3207;42.648;23.406;2022-08-03T10:46:32;100184.06;;;34.52;28.56
6349;BME280;3207;42.648;23.406;2022-08-03T10:49:00;100181.28;;;34.37;29.23
6349;BME280;3207;42.648;23.406;2022-08-03T10:51:27;100191.00;;;34.33;28.95
6349;BME280;3207;42.648;23.406;2022-08-03T10:53:56;100169.69;;;34.57;28.53
6349;BME280;3207;42.648;23.406;2022-08-03T10:56:40;100179.91;;;34.97;28.40
6349;BME280;3207;42.648;23.406;2022-08-03T10:59:57;100165.88;;;35.45;27.79
6349;BME280;3207;42.648;23.406;2022-08-03T11:05:41;100167.25;;;35.38;27.54
6349;BME280;3207;42.648;23.406;2022-08-03T11:08:26;100157.66;;;36.16;26.34
6349;BME280;3207;42.648;23.406;2022-08-03T11:10:56;100159.66;;;36.75;25.51
6349;BME280;3207;42.648;23.406;2022-08-03T11:13:24;100089.47;;;36.47;25.57
6349;BME280;3207;42.648;23.406;2022-08-03T11:15:54;100162.28;;;36.95;25.23
6349;BME280;3207;42.648;23.406;2022-08-03T11:18:22;100154.72;;;36.77;25.62
6349;BME280;3207;42.648;23.406;2022-08-03T11:20:52;100154.84;;;36.52;25.92
6349;BME280;3207;42.648;23.406;2022-08-03T11:23:38;100150.06;;;35.93;26.73
6349;BME280;3207;42.648;23.406;2022-08-03T11:26:12;100157.06;;;36.35;26.93
6349;BME280;3207;42.648;23.406;2022-08-03T11:28:39;100154.94;;;36.21;26.27
6349;BME280;3207;42.648;23.406;2022-08-03T11:31:44;100142.91;;;36.38;26.62
6349;BME280;3207;42.648;23.406;2022-08-03T11:34:14;100152.06;;;36.62;25.68
6349;BME280;3207;42.648;23.406;2022-08-03T11:37:20;100144.84;;;36.27;25.96
6349;BME280;3207;42.648;23.406;2022-08-03T11:39:49;100143.53;;;36.84;25.69
6349;BME280;3207;42.648;23.406;2022-08-03T11:42:42;100138.63;;;36.81;25.78
6349;BME280;3207;42.648;23.406;2022-08-03T11:45:11;100134.72;;;36.43;26.28
6349;BME280;3207;42.648;23.406;2022-08-03T11:47:38;100128.09;;;36.59;26.16
6349;BME280;3207;42.648;23.406;2022-08-03T11:50:06;100119.78;;;36.20;26.26
6349;BME280;3207;42.648;23.406;2022-08-03T11:52:37;100121.69;;;36.14;26.63
6349;BME280;3207;42.648;23.406;2022-08-03T11:55:11;100116.66;;;36.57;25.82
6349;BME280;3207;42.648;23.406;2022-08-03T11:57:39;100121.59;;;36.99;25.59
6349;BME280;3207;42.648;23.406;2022-08-03T12:00:23;100125.06;;;36.65;25.38
6349;BME280;3207;42.648;23.406;2022-08-03T12:02:55;100110.81;;;36.19;26.29
6349;BME280;3207;42.648;23.406;2022-08-03T12:05:32;100097.50;;;36.08;26.62
6349;BME280;3207;42.648;23.406;2022-08-03T12:08:00;100109.22;;;36.03;27.21
6349;BME280;3207;42.648;23.406;2022-08-03T12:10:27;100117.72;;;35.76;27.45
6349;BME280;3207;42.648;23.406;2022-08-03T12:12:54;100109.28;;;35.32;28.29
6349;BME280;3207;42.648;23.406;2022-08-03T12:15:24;100108.69;;;34.90;28.14
6349;BME280;3207;42.648;23.406;2022-08-03T12:17:51;100106.44;;;34.71;28.54
6349;BME280;3207;42.648;23.406;2022-08-03T12:20:20;100111.41;;;35.00;27.96
6349;BME280;3207;42.648;23.406;2022-08-03T12:22:47;100101.63;;;35.19;28.13
6349;BME280;3207;42.648;23.406;2022-08-03T12:25:21;100100.03;;;35.43;27.37
6349;BME280;3207;42.648;23.406;2022-08-03T12:27:48;100095.94;;;35.66;27.66
6349;BME280;3207;42.648;23.406;2022-08-03T12:30:14;100099.22;;;35.73;27.08
6349;BME280;3207;42.648;23.406;2022-08-03T12:32:42;100103.22;;;36.11;26.31
6349;BME280;3207;42.648;23.406;2022-08-03T12:35:09;100096.19;;;35.90;27.09
6349;BME280;3207;42.648;23.406;2022-08-03T12:37:36;100097.31;;;35.74;27.28
6349;BME280;3207;42.648;23.406;2022-08-03T12:40:04;100091.09;;;35.38;28.13
6349;BME280;3207;42.648;23.406;2022-08-03T12:42:34;100089.19;;;35.38;27.58
6349;BME280;3207;42.648;23.406;2022-08-03T12:45:18;100084.25;;;35.40;27.70
6349;BME280;3207;42.648;23.406;2022-08-03T12:47:49;100080.47;;;35.46;28.04
6349;BME280;3207;42.648;23.406;2022-08-03T12:50:23;100071.22;;;35.32;27.46
6349;BME280;3207;42.648;23.406;2022-08-03T12:52:50;100078.28;;;35.23;27.31
6349;BME280;3207;42.648;23.406;2022-08-03T12:55:19;100075.19;;;34.69;27.90
6349;BME280;3207;42.648;23.406;2022-08-03T12:57:48;100074.44;;;34.83;27.92
6349;BME280;3207;42.648;23.406;2022-08-03T13:00:16;100069.56;;;34.85;27.77
6349;BME280;3207;42.648;23.406;2022-08-03T13:02:43;100064.13;;;34.91;28.03
6349;BME280;3207;42.648;23.406;2022-08-03T13:05:11;100054.91;;;35.07;27.35
6349;BME280;3207;42.648;23.406;2022-08-03T13:07:41;100069.56;;;35.21;27.57
6349;BME280;3207;42.648;23.406;2022-08-03T13:10:09;100066.84;;;35.06;27.99
6349;BME280;3207;42.648;23.406;2022-08-03T13:12:46;100065.75;;;34.97;27.84
6349;BME280;3207;42.648;23.406;2022-08-03T13:15:13;100056.53;;;35.13;28.01
6349;BME280;3207;42.648;23.406;2022-08-03T13:17:40;100059.53;;;35.37;28.01